createdAt,value
2018-08-09T00:04:27.118Z,11.40
2018-08-09T00:09:31.002Z,13.00
2018-08-09T00:14:34.878Z,12.20
2018-08-09T00:19:38.845Z,15.25
2018-08-09T00:24:43.821Z,11.00
2018-08-09T00:29:47.803Z,12.00
2018-08-09T00:34:52.546Z,11.25
2018-08-09T00:39:56.488Z,12.00
2018-08-09T00:45:00.470Z,11.50
2018-08-09T00:50:07.519Z,13.60
2018-08-09T00:55:11.479Z,12.00
2018-08-09T01:00:15.392Z,14.00
2018-08-09T01:05:20.025Z,11.25
2018-08-09T01:10:24.037Z,12.20
2018-08-09T01:15:27.924Z,14.60
2018-08-09T01:20:32.285Z,13.25
2018-08-09T01:25:36.258Z,12.20
2018-08-09T01:30:40.179Z,11.80
2018-08-09T01:35:43.987Z,15.80
2018-08-09T01:40:47.873Z,11.75
2018-08-09T01:45:51.665Z,13.20
2018-08-09T01:50:55.533Z,13.75
2018-08-09T01:55:59.440Z,13.00
2018-08-09T02:01:03.363Z,12.00
2018-08-09T02:06:07.355Z,12.25
2018-08-09T02:11:12.338Z,13.25
2018-08-09T02:16:16.140Z,13.50
2018-08-09T02:21:20.053Z,12.40
2018-08-09T02:26:23.981Z,14.80
2018-08-09T02:31:27.912Z,15.50
2018-08-09T02:36:31.707Z,14.25
2018-08-09T02:41:35.560Z,14.50
2018-08-09T02:46:39.456Z,15.75
2018-08-09T02:51:43.544Z,15.00
2018-08-09T02:56:47.401Z,17.00
2018-08-09T03:01:51.362Z,13.50
2018-08-09T03:06:55.515Z,13.80
2018-08-09T03:11:59.396Z,16.00
2018-08-09T03:17:03.261Z,15.00
2018-08-09T03:22:07.394Z,16.00
2018-08-09T03:27:11.308Z,15.00
2018-08-09T03:32:15.137Z,16.00
2018-08-09T03:37:18.921Z,14.80
2018-08-09T03:42:22.718Z,18.00
2018-08-09T03:47:26.638Z,20.00
2018-08-09T03:52:30.467Z,22.25
2018-08-09T03:57:34.302Z,18.75
2018-08-09T04:02:38.338Z,22.00
2018-08-09T04:07:42.375Z,24.60
2018-08-09T04:12:46.145Z,22.75
2018-08-09T04:17:50.004Z,21.60
2018-08-09T04:22:53.873Z,28.80
2018-08-09T04:27:57.670Z,30.75
2018-08-09T04:33:01.421Z,23.50
2018-08-09T04:38:05.451Z,22.40
2018-08-09T04:43:09.256Z,22.50
2018-08-09T04:48:13.149Z,21.60
2018-08-09T04:53:17.002Z,21.60
2018-08-09T04:58:20.879Z,26.40
2018-08-09T05:03:24.661Z,22.50
2018-08-09T05:08:28.487Z,23.25
2018-08-09T05:13:32.311Z,23.25
2018-08-09T05:18:36.197Z,23.00
2018-08-09T05:23:40.043Z,33.20
2018-08-09T05:28:44.992Z,47.80
2018-08-09T05:33:48.799Z,32.50
2018-08-09T05:38:52.664Z,26.60
2018-08-09T05:43:56.518Z,30.75
2018-08-09T05:49:00.484Z,32.25
2018-08-09T05:54:04.354Z,29.25
2018-08-09T05:59:08.109Z,29.00
2018-08-09T06:04:11.984Z,43.20
2018-08-09T06:09:15.783Z,30.20
2018-08-09T06:14:19.604Z,28.50
2018-08-09T06:19:23.394Z,30.25
2018-08-09T06:24:27.242Z,29.80
2018-08-09T06:29:31.097Z,27.75
2018-08-09T06:34:35.042Z,27.60
2018-08-09T06:39:39.043Z,30.50
2018-08-09T06:44:43.096Z,29.75
2018-08-09T06:49:51.221Z,25.80
2018-08-09T06:54:55.098Z,30.00
2018-08-09T06:59:59.097Z,30.60
2018-08-09T07:05:09.155Z,30.40
2018-08-09T07:10:13.177Z,28.83
2018-08-09T07:15:17.559Z,29.40
2018-08-09T07:20:21.532Z,25.40
2018-08-09T07:25:30.944Z,28.00
2018-08-09T07:30:35.807Z,26.20
2018-08-09T07:35:39.842Z,27.20
2018-08-09T07:40:43.831Z,27.50
2018-08-09T07:45:47.703Z,25.60
2018-08-09T07:50:51.620Z,26.00
2018-08-09T07:55:55.533Z,27.50
2018-08-09T08:00:59.617Z,28.00
2018-08-09T08:06:03.497Z,28.25
2018-08-09T08:11:09.368Z,29.25
2018-08-09T08:16:13.373Z,28.25
2018-08-09T08:21:17.395Z,28.00
2018-08-09T08:26:21.352Z,27.50
2018-08-09T08:31:25.178Z,29.00
2018-08-09T08:36:29.098Z,25.60
2018-08-09T08:41:33.198Z,28.40
2018-08-09T08:46:39.057Z,29.80
2018-08-09T08:51:44.039Z,25.40
2018-08-09T08:56:48.082Z,27.40
2018-08-09T09:01:52.090Z,27.20
2018-08-09T09:06:56.076Z,29.20
2018-08-09T09:11:59.986Z,26.40
2018-08-09T09:17:03.835Z,29.00
2018-08-09T09:22:07.779Z,24.25
2018-08-09T09:32:15.242Z,27.00
2018-08-09T09:37:19.250Z,27.00
2018-08-09T09:42:24.281Z,28.25
2018-08-09T09:47:28.253Z,23.50
2018-08-09T09:52:32.207Z,28.00
2018-08-09T09:57:36.368Z,20.20
2018-08-09T10:02:40.353Z,24.00
2018-08-09T10:07:44.268Z,23.20
2018-08-09T10:12:51.927Z,21.80
2018-08-09T10:17:55.829Z,20.00
2018-08-09T10:23:00.952Z,22.00
2018-08-09T10:28:05.986Z,20.50
2018-08-09T10:33:10.124Z,20.20
2018-08-09T10:38:15.227Z,22.00
2018-08-09T10:43:19.290Z,18.40
2018-08-09T10:48:24.161Z,21.40
2018-08-09T10:53:28.114Z,21.60
2018-08-09T10:58:32.428Z,20.80
2018-08-09T11:03:36.534Z,17.40
2018-08-09T11:08:41.535Z,19.75
2018-08-09T11:13:46.420Z,19.60
2018-08-09T11:18:50.514Z,17.80
2018-08-09T11:23:54.572Z,17.40
2018-08-09T11:28:58.621Z,20.50
2018-08-09T11:34:02.608Z,16.75
2018-08-09T11:39:10.070Z,18.40
2018-08-09T11:44:14.126Z,20.20
2018-08-09T11:49:19.005Z,16.80
2018-08-09T11:54:23.007Z,17.60
2018-08-09T11:59:27.115Z,16.00
2018-08-09T12:04:31.176Z,16.20
2018-08-09T12:09:36.595Z,15.20
2018-08-09T12:14:40.611Z,14.25
2018-08-09T12:19:44.600Z,17.75
2018-08-09T12:24:48.700Z,15.75
2018-08-09T12:29:53.611Z,14.00
2018-08-09T12:34:57.698Z,15.00
2018-08-09T12:40:06.322Z,17.40
2018-08-09T12:45:12.173Z,15.00
2018-08-09T12:50:16.323Z,15.75
2018-08-09T12:55:21.237Z,18.75
2018-08-09T13:00:25.391Z,15.60
2018-08-09T13:05:29.474Z,18.75
2018-08-09T13:10:33.397Z,13.25
2018-08-09T13:15:37.490Z,14.25
2018-08-09T13:20:42.072Z,14.50
2018-08-09T13:25:46.165Z,14.20
2018-08-09T13:30:50.169Z,12.40
2018-08-09T13:35:54.096Z,15.75
2018-08-09T13:40:58.177Z,12.40
2018-08-09T13:46:02.372Z,15.25
2018-08-09T13:51:06.696Z,11.00
2018-08-09T13:56:11.528Z,13.00
2018-08-09T14:01:15.629Z,11.25
2018-08-09T14:06:19.661Z,12.25
2018-08-09T14:11:23.815Z,11.80
2018-08-09T14:16:27.972Z,10.75
2018-08-09T14:21:31.959Z,12.80
2018-08-09T14:26:35.922Z,13.60
2018-08-09T14:31:40.190Z,12.40
2018-08-09T14:36:44.207Z,11.40
2018-08-09T14:41:48.303Z,10.20
2018-08-09T14:46:52.383Z,11.00
2018-08-09T14:51:56.541Z,12.20
2018-08-09T14:57:00.829Z,12.25
2018-08-09T15:02:04.962Z,11.25
2018-08-09T15:07:08.980Z,9.80
2018-08-09T15:12:13.131Z,11.20
2018-08-09T15:17:17.186Z,10.00
2018-08-09T15:22:21.410Z,10.60
2018-08-09T15:27:25.553Z,9.00
2018-08-09T15:32:29.831Z,9.75
2018-08-09T15:37:34.070Z,11.00
2018-08-09T15:42:38.702Z,12.60
2018-08-09T15:47:43.352Z,9.25
2018-08-09T15:52:47.596Z,9.40
2018-08-09T15:57:51.817Z,14.50
2018-08-09T16:02:55.960Z,23.50
2018-08-09T16:08:03.889Z,28.80
2018-08-09T16:13:07.972Z,33.40
2018-08-09T16:18:12.046Z,29.50
2018-08-09T16:23:15.973Z,33.50
2018-08-09T16:28:20.113Z,35.00
2018-08-09T16:33:24.377Z,30.60
2018-08-09T16:38:28.456Z,33.80
2018-08-09T16:43:32.742Z,32.25
2018-08-09T16:48:37.044Z,31.00
2018-08-09T16:53:41.188Z,31.75
2018-08-09T16:58:45.207Z,32.20
2018-08-09T17:03:50.805Z,31.40
2018-08-09T17:08:56.405Z,32.25
2018-08-09T17:14:01.435Z,33.00
2018-08-09T17:19:05.721Z,31.80
2018-08-09T17:24:10.910Z,33.00
2018-08-09T17:29:14.935Z,30.75
2018-08-09T17:34:18.922Z,31.50
2018-08-09T17:39:23.107Z,29.50
2018-08-09T17:44:28.040Z,33.60
2018-08-09T17:49:38.284Z,28.75
2018-08-09T17:54:42.539Z,27.50
2018-08-09T17:59:46.698Z,28.60
2018-08-09T18:04:52.025Z,29.00
2018-08-09T18:09:56.919Z,31.20
2018-08-09T18:15:04.051Z,24.75
2018-08-09T18:20:11.575Z,29.20
2018-08-09T18:25:16.473Z,24.60
2018-08-09T18:30:21.129Z,24.75
2018-08-09T18:35:25.659Z,17.80
2018-08-09T18:51:21.026Z,11.25
2018-08-09T18:56:28.357Z,8.80
2018-08-09T19:01:34.061Z,5.75
2018-08-09T19:06:38.934Z,7.40
2018-08-09T19:11:43.577Z,7.20
2018-08-09T19:16:48.025Z,8.50
2018-08-09T19:21:53.991Z,7.00
2018-08-09T19:26:58.096Z,8.20
2018-08-09T19:32:02.650Z,8.20
2018-08-09T19:37:06.750Z,7.20
2018-08-09T19:42:10.819Z,15.50
2018-08-09T19:47:14.934Z,8.25
2018-08-09T19:52:20.452Z,8.00
2018-08-09T19:57:24.571Z,8.75
2018-08-09T20:02:29.053Z,7.40
2018-08-09T20:07:33.980Z,7.00
2018-08-09T20:12:37.921Z,8.60
2018-08-09T20:17:42.559Z,7.40
2018-08-09T20:22:46.536Z,8.25
2018-08-09T20:27:50.546Z,6.25
2018-08-09T20:32:54.760Z,6.75
2018-08-09T20:37:59.489Z,7.50
2018-08-09T20:43:03.476Z,9.50
2018-08-09T20:48:07.478Z,7.50
2018-08-09T20:53:11.692Z,8.25
2018-08-09T20:58:15.537Z,8.00
2018-08-09T21:03:19.540Z,9.20
2018-08-09T21:08:23.619Z,7.75
2018-08-09T21:13:29.183Z,9.50
2018-08-09T21:18:34.179Z,7.00
2018-08-09T21:23:38.915Z,8.00
2018-08-09T21:28:42.784Z,7.75
2018-08-09T21:33:46.841Z,7.50
2018-08-09T21:38:50.843Z,7.25
2018-08-09T21:43:54.856Z,8.75
2018-08-09T21:48:58.938Z,6.00
2018-08-09T21:54:03.232Z,10.00
2018-08-09T21:59:07.138Z,7.20
2018-08-09T22:04:11.206Z,7.60
2018-08-09T22:11:22.409Z,7.00
2018-08-09T22:16:31.469Z,6.00
2018-08-09T22:21:40.980Z,8.00
2018-08-09T22:26:45.769Z,6.80
2018-08-09T22:31:49.801Z,7.50
2018-08-09T22:36:53.872Z,7.25
2018-08-09T22:41:58.334Z,6.50
2018-08-09T22:47:02.477Z,5.25
2018-08-09T22:52:06.522Z,5.75
2018-08-09T22:57:10.407Z,6.75
2018-08-09T23:02:14.221Z,5.75
2018-08-09T23:07:18.087Z,6.25
2018-08-09T23:12:21.993Z,4.00
2018-08-09T23:17:25.831Z,5.00
2018-08-09T23:22:29.765Z,5.00
2018-08-09T23:27:33.650Z,5.75
2018-08-09T23:32:37.597Z,3.50
2018-08-09T23:37:41.481Z,4.75
2018-08-09T23:42:45.414Z,3.00
2018-08-09T23:47:49.245Z,5.50
2018-08-09T23:52:53.059Z,3.25
2018-08-09T23:57:56.889Z,3.80
